createdAt,value
2018-01-02T00:00:45.481Z,70.59
2018-01-02T00:01:45.461Z,70.4
2018-01-02T00:02:45.443Z,70.78
2018-01-02T00:03:45.421Z,70.69
2018-01-02T00:04:45.137Z,70.69
2018-01-02T00:05:45.116Z,70.78
2018-01-02T00:06:45.103Z,70.69
2018-01-02T00:07:45.337Z,70.5
2018-01-02T00:08:45.055Z,70.59
2018-01-02T00:09:45.036Z,70.78
2018-01-02T00:10:45.275Z,70.69
2018-01-02T00:11:45.259Z,70.5
2018-01-02T00:12:44.976Z,70.78
2018-01-02T00:13:44.953Z,70.5
2018-01-02T00:14:45.194Z,70.69
2018-01-02T00:15:45.175Z,70.5
2018-01-02T00:16:44.889Z,70.5
2018-01-02T00:17:45.133Z,70.59
2018-01-02T00:18:45.115Z,70.59
2018-01-02T00:19:44.831Z,70.69
2018-01-02T00:20:44.810Z,70.59
2018-01-02T00:21:44.784Z,70.59
2018-01-02T00:22:44.967Z,70.59
2018-01-02T00:23:45.012Z,70.31
2018-01-02T00:24:44.987Z,70.5
2018-01-02T00:25:44.704Z,70.31
2018-01-02T00:26:44.945Z,70.31
2018-01-02T00:27:44.663Z,70.21
2018-01-02T00:28:44.906Z,70.21
2018-01-02T00:29:44.628Z,70.31
2018-01-02T00:30:44.602Z,70.5
2018-01-02T00:31:44.850Z,70.03
2018-01-02T00:32:44.830Z,70.03
2018-01-02T00:33:44.808Z,70.03
2018-01-02T00:34:44.518Z,70.21
2018-01-02T00:35:44.762Z,70.5
2018-01-02T00:36:44.739Z,70.4
2018-01-02T00:37:44.778Z,70.31
2018-01-02T00:38:44.703Z,70.5
2018-01-02T00:39:44.414Z,70.59
2018-01-02T00:40:44.656Z,70.5
2018-01-02T00:41:44.379Z,70.4
2018-01-02T00:42:44.615Z,70.4
2018-01-02T00:43:44.597Z,70.21
2018-01-02T00:44:44.573Z,70.12
2018-01-02T00:45:44.291Z,70.5
2018-01-02T00:46:44.273Z,70.5
2018-01-02T00:47:44.249Z,70.5
2018-01-02T00:48:44.227Z,70.03
2018-01-02T00:49:44.206Z,70.59
2018-01-02T00:50:44.187Z,70.5
2018-01-02T00:51:44.166Z,70.5
2018-01-02T00:52:44.407Z,70.5
2018-01-02T00:53:44.120Z,70.5
2018-01-02T00:54:44.366Z,70.59
2018-01-02T00:55:44.086Z,70.5
2018-01-02T00:56:44.325Z,70.5
2018-01-02T00:57:44.046Z,70.5
2018-01-02T00:58:44.018Z,70.12
2018-01-02T00:59:44.311Z,70.31
2018-01-02T01:00:44.243Z,70.31
2018-01-02T01:01:43.959Z,70.59
2018-01-02T01:02:44.200Z,70.31
2018-01-02T01:03:44.182Z,70.31
2018-01-02T01:04:44.158Z,70.03
2018-01-02T01:05:44.146Z,70.4
2018-01-02T01:06:44.124Z,70.21
2018-01-02T01:07:44.111Z,70.12
2018-01-02T01:08:44.076Z,70.03
2018-01-02T01:09:43.800Z,70.12
2018-01-02T01:10:44.035Z,70.4
2018-01-02T01:11:43.766Z,70.4
2018-01-02T01:12:43.990Z,70.31
2018-01-02T01:13:43.991Z,70.21
2018-01-02T01:14:43.686Z,70.31
2018-01-02T01:15:43.692Z,70.31
2018-01-02T01:16:43.908Z,70.21
2018-01-02T01:17:43.890Z,70.4
2018-01-02T01:18:43.878Z,70.21
2018-01-02T01:19:43.581Z,70.12
2018-01-02T01:20:43.825Z,70.31
2018-01-02T01:21:43.809Z,70.12
2018-01-02T01:22:43.783Z,70.03
2018-01-02T01:23:43.768Z,69.93
2018-01-02T01:24:43.478Z,70.21
2018-01-02T01:25:43.726Z,70.31
2018-01-02T01:26:43.701Z,69.84
2018-01-02T01:27:43.696Z,69.65
2018-01-02T01:28:43.658Z,69.65
2018-01-02T01:29:43.674Z,69.84
2018-01-02T01:30:43.620Z,69.74
2018-01-02T01:31:43.596Z,69.74
2018-01-02T01:32:43.311Z,69.74
2018-01-02T01:33:43.555Z,69.65
2018-01-02T01:34:43.544Z,69.65
2018-01-02T01:35:43.511Z,69.84
2018-01-02T01:36:43.490Z,69.84
2018-01-02T01:37:43.475Z,69.55
2018-01-02T01:38:43.190Z,69.74
2018-01-02T01:39:43.432Z,69.84
2018-01-02T01:40:43.144Z,69.84
2018-01-02T01:41:43.390Z,69.74
2018-01-02T01:42:43.364Z,69.74
2018-01-02T01:43:43.089Z,69.74
2018-01-02T01:44:43.324Z,69.74
2018-01-02T01:45:43.302Z,69.74
2018-01-02T01:46:43.280Z,69.84
2018-01-02T01:47:43.268Z,69.93
2018-01-02T01:48:43.243Z,70.03
2018-01-02T01:49:43.219Z,69.65
2018-01-02T01:50:43.205Z,69.46
2018-01-02T01:51:42.918Z,69.46
2018-01-02T01:52:42.893Z,69.55
2018-01-02T01:53:42.874Z,69.46
2018-01-02T01:54:42.853Z,69.46
2018-01-02T01:55:42.830Z,69.46
2018-01-02T01:56:42.812Z,69.36
2018-01-02T01:57:43.052Z,69.36
2018-01-02T01:58:43.032Z,69.84
2018-01-02T01:59:43.014Z,69.65
2018-01-02T02:00:42.727Z,69.84
2018-01-02T02:01:42.709Z,69.74
2018-01-02T02:02:42.684Z,69.84
2018-01-02T02:03:42.665Z,69.74
2018-01-02T02:04:42.908Z,69.84
2018-01-02T02:05:42.887Z,69.84
2018-01-02T02:06:42.601Z,70.03
2018-01-02T02:07:42.581Z,69.74
2018-01-02T02:08:42.567Z,69.65
2018-01-02T02:09:42.545Z,70.03
2018-01-02T02:10:42.780Z,69.55
2018-01-02T02:11:42.497Z,69.74
2018-01-02T02:12:42.476Z,69.84
2018-01-02T02:13:42.456Z,69.46
2018-01-02T02:14:42.434Z,69.65
2018-01-02T02:15:42.412Z,69.55
2018-01-02T02:16:42.657Z,69.27
2018-01-02T02:17:42.375Z,69.46
2018-01-02T02:18:42.352Z,69.93
2018-01-02T02:19:42.598Z,69.55
2018-01-02T02:20:42.576Z,69.65
2018-01-02T02:21:42.287Z,69.65
2018-01-02T02:22:42.470Z,69.55
2018-01-02T02:23:42.513Z,69.65
2018-01-02T02:24:42.508Z,69.55
2018-01-02T02:25:42.213Z,69.93
2018-01-02T02:26:42.187Z,69.74
2018-01-02T02:27:42.168Z,69.55
2018-01-02T02:28:42.147Z,69.55
2018-01-02T02:29:42.385Z,69.46
2018-01-02T02:30:42.367Z,69.55
2018-01-02T02:31:42.353Z,69.55
2018-01-02T02:32:42.322Z,69.46
2018-01-02T02:33:42.039Z,69.55
2018-01-02T02:34:42.020Z,69.74
2018-01-02T02:35:42.004Z,69.27
2018-01-02T02:36:42.244Z,69.27
2018-01-02T02:37:42.225Z,69.46
2018-01-02T02:38:41.937Z,69.65
2018-01-02T02:39:42.179Z,69.46
2018-01-02T02:40:42.160Z,69.65
2018-01-02T02:41:42.141Z,69.55
2018-01-02T02:42:42.117Z,69.27
2018-01-02T02:43:41.834Z,69.27
2018-01-02T02:44:41.812Z,69.27
2018-01-02T02:45:42.054Z,69.27
2018-01-02T02:46:42.041Z,69.27
2018-01-02T02:47:41.754Z,69.36
2018-01-02T02:48:41.728Z,69.17
2018-01-02T02:49:41.979Z,69.08
2018-01-02T02:50:41.959Z,69.17
2018-01-02T02:51:41.935Z,68.98
2018-01-02T02:52:41.920Z,69.46
2018-01-02T02:53:41.896Z,69.65
2018-01-02T02:54:41.608Z,69.27
2018-01-02T02:55:41.850Z,69.08
2018-01-02T02:56:41.830Z,68.89
2018-01-02T02:57:41.573Z,68.79
2018-01-02T02:58:41.795Z,68.79
2018-01-02T02:59:41.768Z,68.79
2018-01-02T03:00:41.747Z,68.89
2018-01-02T03:01:41.734Z,68.98
2018-01-02T03:02:41.709Z,68.79
2018-01-02T03:03:41.694Z,68.79
2018-01-02T03:04:41.398Z,69.08
2018-01-02T03:05:41.683Z,68.98
2018-01-02T03:06:41.622Z,68.6
2018-01-02T03:07:41.605Z,69.17
2018-01-02T03:08:41.580Z,68.6
2018-01-02T03:09:41.579Z,68.6
2018-01-02T03:10:41.276Z,68.6
2018-01-02T03:11:41.517Z,68.6
2018-01-02T03:12:41.498Z,68.7
2018-01-02T03:13:41.478Z,68.89
2018-01-02T03:14:41.194Z,68.79
2018-01-02T03:15:41.439Z,68.7
2018-01-02T03:16:41.421Z,68.7
2018-01-02T03:17:41.396Z,68.98
2018-01-02T03:18:41.110Z,68.79
2018-01-02T03:19:41.091Z,68.79
2018-01-02T03:20:41.068Z,68.79
2018-01-02T03:21:41.051Z,68.98
2018-01-02T03:22:41.296Z,68.6
2018-01-02T03:23:41.275Z,69.08
2018-01-02T03:24:41.251Z,68.98
2018-01-02T03:25:40.969Z,68.13
2018-01-02T03:26:41.220Z,68.32
2018-01-02T03:27:40.932Z,68.51
2018-01-02T03:28:41.169Z,68.23
2018-01-02T03:29:40.887Z,68.23
2018-01-02T03:30:40.871Z,68.13
2018-01-02T03:31:41.112Z,68.13
2018-01-02T03:32:40.823Z,68.13
2018-01-02T03:33:40.801Z,68.41
2018-01-02T03:34:41.047Z,68.23
2018-01-02T03:35:41.028Z,68.23
2018-01-02T03:36:40.747Z,68.13
2018-01-02T03:37:40.985Z,68.13
2018-01-02T03:38:40.970Z,68.13
2018-01-02T03:39:40.950Z,68.13
2018-01-02T03:40:40.927Z,68.13
2018-01-02T03:41:40.906Z,68.13
2018-01-02T03:42:40.622Z,67.85
2018-01-02T03:43:40.860Z,68.23
2018-01-02T03:44:40.842Z,68.23
2018-01-02T03:45:40.562Z,68.32
2018-01-02T03:46:40.538Z,68.32
2018-01-02T03:47:40.518Z,68.13
2018-01-02T03:48:40.549Z,68.23
2018-01-02T03:49:40.739Z,68.32
2018-01-02T03:50:40.459Z,68.41
2018-01-02T03:51:40.704Z,67.94
2018-01-02T03:52:40.681Z,68.51
2018-01-02T03:53:40.657Z,68.23
2018-01-02T03:54:40.375Z,68.23
2018-01-02T03:55:40.616Z,68.23
2018-01-02T03:56:40.598Z,68.04
2018-01-02T03:57:40.314Z,68.04
2018-01-02T03:58:40.557Z,68.32
2018-01-02T03:59:40.273Z,68.04
2018-01-02T04:00:40.513Z,68.32
2018-01-02T04:01:40.495Z,68.04
2018-01-02T04:02:40.474Z,68.26
2018-01-02T04:03:40.475Z,68.23
2018-01-02T04:04:40.436Z,68.07
2018-01-02T04:05:40.156Z,68.04
2018-01-02T04:06:40.392Z,68.13
2018-01-02T04:07:40.107Z,67.94
2018-01-02T04:08:40.094Z,68.32
2018-01-02T04:09:40.330Z,68.13
2018-01-02T04:10:40.048Z,68.23
2018-01-02T04:11:40.287Z,68.26
2018-01-02T04:12:40.272Z,67.97
2018-01-02T04:13:40.251Z,68.13
2018-01-02T04:14:39.964Z,67.94
2018-01-02T04:15:40.206Z,67.94
2018-01-02T04:16:39.923Z,68.13
2018-01-02T04:17:39.904Z,68.13
2018-01-02T04:18:39.885Z,68.13
2018-01-02T04:19:39.864Z,68.26
2018-01-02T04:20:40.109Z,68.04
2018-01-02T04:21:39.820Z,68.13
2018-01-02T04:22:40.004Z,67.94
2018-01-02T04:23:40.041Z,67.94
2018-01-02T04:24:39.759Z,68.32
2018-01-02T04:25:40.001Z,68.32
2018-01-02T04:26:39.715Z,67.94
2018-01-02T04:27:39.966Z,68.13
2018-01-02T04:28:39.942Z,67.85
2018-01-02T04:29:39.921Z,68.13
2018-01-02T04:30:39.636Z,68.07
2018-01-02T04:31:39.877Z,68.16
2018-01-02T04:32:39.593Z,68.41
2018-01-02T04:33:39.575Z,68.26
2018-01-02T04:34:39.558Z,68.98
2018-01-02T04:35:39.799Z,69.08
2018-01-02T04:36:39.776Z,68.79
2018-01-02T04:37:39.754Z,68.23
2018-01-02T04:38:39.470Z,68.04
2018-01-02T04:39:39.455Z,68.04
2018-01-02T04:40:39.696Z,67.94
2018-01-02T04:41:39.673Z,67.88
2018-01-02T04:42:39.386Z,68.13
2018-01-02T04:43:39.365Z,67.88
2018-01-02T04:44:39.345Z,68.13
2018-01-02T04:45:39.591Z,68.13
2018-01-02T04:46:39.569Z,68.89
2018-01-02T04:47:39.284Z,69.02
2018-01-02T04:48:39.529Z,68.83
2018-01-02T04:49:39.248Z,68.79
2018-01-02T04:50:39.221Z,68.6
2018-01-02T04:51:39.214Z,68.7
2018-01-02T04:52:39.443Z,69.36
2018-01-02T04:53:39.160Z,69.11
2018-01-02T04:54:39.405Z,69.55
2018-01-02T04:55:39.396Z,69.55
2018-01-02T04:56:39.099Z,69.59
2018-01-02T04:57:39.078Z,69.21
2018-01-02T04:58:39.059Z,69.17
2018-01-02T04:59:39.301Z,69.55
2018-01-02T05:00:39.276Z,69.27
2018-01-02T05:01:39.260Z,69.59
2018-01-02T05:02:39.241Z,68.98
2018-01-02T05:03:39.220Z,69.36
2018-01-02T05:04:39.196Z,69.4
2018-01-02T05:05:38.923Z,69.74
2018-01-02T05:06:39.153Z,69.59
2018-01-02T05:07:38.871Z,68.89
2018-01-02T05:08:39.112Z,69.08
2018-01-02T05:09:38.827Z,69.59
2018-01-02T05:10:38.808Z,69.49
2018-01-02T05:11:38.787Z,68.64
2018-01-02T05:12:39.033Z,68.92
2018-01-02T05:13:39.011Z,68.83
2018-01-02T05:14:38.726Z,68.35
2018-01-02T05:15:38.972Z,68.64
2018-01-02T05:16:38.950Z,68.73
2018-01-02T05:17:38.663Z,68.44
2018-01-02T05:18:38.910Z,68.64
2018-01-02T05:19:38.640Z,68.7
2018-01-02T05:20:38.605Z,68.54
2018-01-02T05:21:38.852Z,68.51
2018-01-02T05:22:38.824Z,68.73
2018-01-02T05:23:38.804Z,69.08
2018-01-02T05:24:38.520Z,69.36
2018-01-02T05:25:38.762Z,69.08
2018-01-02T05:26:38.747Z,68.79
2018-01-02T05:27:38.456Z,68.89
2018-01-02T05:28:38.435Z,68.41
2018-01-02T05:29:38.420Z,68.79
2018-01-02T05:30:38.660Z,68.04
2018-01-02T05:31:38.637Z,68.23
2018-01-02T05:32:38.354Z,68.04
2018-01-02T05:33:38.593Z,68.04
2018-01-02T05:34:38.312Z,67.56
2018-01-02T05:35:38.292Z,68.04
2018-01-02T05:36:38.536Z,67.56
2018-01-02T05:37:38.517Z,67.46
2018-01-02T05:38:38.492Z,67.65
2018-01-02T05:39:38.476Z,67.65
2018-01-02T05:40:38.186Z,67.46
2018-01-02T05:41:38.432Z,67.27
2018-01-02T05:42:38.147Z,67.4
2018-01-02T05:43:38.387Z,67.37
2018-01-02T05:44:38.367Z,67.56
2018-01-02T05:45:38.345Z,67.56
2018-01-02T05:46:38.325Z,67.65
2018-01-02T05:47:38.040Z,67.56
2018-01-02T05:48:38.024Z,67.21
2018-01-02T05:49:38.005Z,67.21
2018-01-02T05:50:37.979Z,67.18
2018-01-02T05:51:38.228Z,67.08
2018-01-02T05:52:37.937Z,67.27
2018-01-02T05:53:38.184Z,67.18
2018-01-02T05:54:38.163Z,66.93
2018-01-02T05:55:37.877Z,66.99
2018-01-02T05:56:38.122Z,66.89
2018-01-02T05:57:38.143Z,67.18
2018-01-02T05:58:38.080Z,67.12
2018-01-02T05:59:37.794Z,66.89
2018-01-02T06:00:38.038Z,66.89
2018-01-02T06:01:37.753Z,66.8
2018-01-02T06:02:37.996Z,67.08
2018-01-02T06:03:37.976Z,66.93
2018-01-02T06:04:37.690Z,67.02
2018-01-02T06:05:37.933Z,67.02
2018-01-02T06:06:37.651Z,67.02
2018-01-02T06:07:37.894Z,66.93
2018-01-02T06:08:37.609Z,66.83
2018-01-02T06:09:37.852Z,67.21
2018-01-02T06:10:37.569Z,67.21
2018-01-02T06:11:37.807Z,67.21
2018-01-02T06:12:37.529Z,66.93
2018-01-02T06:13:37.507Z,67.21
2018-01-02T06:14:37.753Z,67.21
2018-01-02T06:15:37.470Z,67.21
2018-01-02T06:16:37.711Z,67.02
2018-01-02T06:17:37.428Z,67.02
2018-01-02T06:18:37.404Z,67.31
2018-01-02T06:19:37.592Z,66.93
2018-01-02T06:20:37.625Z,67.21
2018-01-02T06:21:37.616Z,67.02
2018-01-02T06:22:37.330Z,67.02
2018-01-02T06:23:37.306Z,67.02
2018-01-02T06:24:37.286Z,67.02
2018-01-02T06:25:37.528Z,67.21
2018-01-02T06:26:37.507Z,67.21
2018-01-02T06:27:37.484Z,67.21
2018-01-02T06:28:37.202Z,67.12
2018-01-02T06:29:37.441Z,67.21
2018-01-02T06:30:37.158Z,67.21
2018-01-02T06:31:37.139Z,67.02
2018-01-02T06:32:37.382Z,66.93
2018-01-02T06:33:37.098Z,66.93
2018-01-02T06:34:37.341Z,67.12
2018-01-02T06:35:37.059Z,67.21
2018-01-02T06:36:37.300Z,67.02
2018-01-02T06:37:37.279Z,67.31
2018-01-02T06:38:37.256Z,67.4
2018-01-02T06:39:37.240Z,67.5
2018-01-02T06:40:36.954Z,67.31
2018-01-02T06:41:37.195Z,67.21
2018-01-02T06:42:37.179Z,67.31
2018-01-02T06:43:37.217Z,66.74
2018-01-02T06:44:37.136Z,66.74
2018-01-02T06:45:36.858Z,66.83
2018-01-02T06:46:36.833Z,67.02
2018-01-02T06:47:37.073Z,66.93
2018-01-02T06:48:37.061Z,66.83
2018-01-02T06:49:37.036Z,66.83
2018-01-02T06:50:37.012Z,66.74
2018-01-02T06:51:36.730Z,66.74
2018-01-02T06:52:36.708Z,66.64
2018-01-02T06:53:36.695Z,66.64
2018-01-02T06:54:36.671Z,66.55
2018-01-02T06:55:36.648Z,66.64
2018-01-02T06:56:36.889Z,67.02
2018-01-02T06:57:36.606Z,66.55
2018-01-02T06:58:36.848Z,66.55
2018-01-02T06:59:36.567Z,66.27
2018-01-02T07:00:36.543Z,66.27
2018-01-02T07:01:36.793Z,66.17
2018-01-02T07:02:36.504Z,66.46
2018-01-02T07:03:36.482Z,66.17
2018-01-02T07:04:36.464Z,66.27
2018-01-02T07:05:36.446Z,66.08
2018-01-02T07:06:36.685Z,66.27
2018-01-02T07:07:36.402Z,66.64
2018-01-02T07:08:36.383Z,66.36
2018-01-02T07:09:36.361Z,66.36
2018-01-02T07:10:36.339Z,65.79
2018-01-02T07:11:36.317Z,66.08
2018-01-02T07:12:36.567Z,66.08
2018-01-02T07:13:36.547Z,66.08
2018-01-02T07:14:36.259Z,65.88
2018-01-02T07:15:36.508Z,66.08
2018-01-02T07:16:36.482Z,65.98
2018-01-02T07:17:36.196Z,65.98
2018-01-02T07:18:36.173Z,66.08
2018-01-02T07:19:36.158Z,66.08
2018-01-02T07:20:36.135Z,66.08
2018-01-02T07:21:36.114Z,66.17
2018-01-02T07:22:36.094Z,65.88
2018-01-02T07:23:36.345Z,66.08
2018-01-02T07:24:36.054Z,66.17
2018-01-02T07:25:36.037Z,65.88
2018-01-02T07:26:36.276Z,66.17
2018-01-02T07:27:35.991Z,66.08
2018-01-02T07:28:35.972Z,66.08
2018-01-02T07:29:36.212Z,65.98
2018-01-02T07:30:36.196Z,65.98
2018-01-02T07:31:36.181Z,65.98
2018-01-02T07:32:36.151Z,65.79
2018-01-02T07:33:36.135Z,65.88
2018-01-02T07:34:36.112Z,65.88
2018-01-02T07:35:35.828Z,65.98
2018-01-02T07:36:35.810Z,66.17
2018-01-02T07:37:36.078Z,65.88
2018-01-02T07:38:35.767Z,66.17
2018-01-02T07:39:36.011Z,66.08
2018-01-02T07:40:35.986Z,66.08
2018-01-02T07:41:35.704Z,66.17
2018-01-02T07:42:35.951Z,66.36
2018-01-02T07:43:35.936Z,66.08
2018-01-02T07:44:35.907Z,66.46
2018-01-02T07:45:35.627Z,66.55
2018-01-02T07:46:35.606Z,66.93
2018-01-02T07:47:35.580Z,67.31
2018-01-02T07:48:35.824Z,67.12
2018-01-02T07:49:35.542Z,66.93
2018-01-02T07:50:35.787Z,67.21
2018-01-02T07:51:35.765Z,67.12
2018-01-02T07:52:35.748Z,67.02
2018-01-02T07:53:35.460Z,67.02
2018-01-02T07:54:35.446Z,67.02
2018-01-02T07:55:35.421Z,67.12
2018-01-02T07:56:35.665Z,66.93
2018-01-02T07:57:35.381Z,66.74
2018-01-02T07:58:35.623Z,66.83
2018-01-02T07:59:35.603Z,67.02
2018-01-02T08:00:35.319Z,66.83
2018-01-02T08:01:35.564Z,66.74
2018-01-02T08:02:35.279Z,66.93
2018-01-02T08:03:35.260Z,66.74
2018-01-02T08:04:35.499Z,66.83
2018-01-02T08:05:35.480Z,66.64
2018-01-02T08:06:35.197Z,66.83
2018-01-02T08:07:35.178Z,66.93
2018-01-02T08:08:35.159Z,67.02
2018-01-02T08:09:35.141Z,66.74
2018-01-02T08:10:35.116Z,66.74
2018-01-02T08:11:35.422Z,67.79
2018-01-02T08:12:35.075Z,67.12
2018-01-02T08:13:35.317Z,66.93
2018-01-02T08:14:35.307Z,67.12
2018-01-02T08:15:35.283Z,66.74
2018-01-02T08:16:35.001Z,67.31
2018-01-02T08:17:34.969Z,68.19
2018-01-02T08:18:34.958Z,67.91
2018-01-02T08:19:35.198Z,68.26
2018-01-02T08:20:35.176Z,67.88
2018-01-02T08:21:35.154Z,68.16
2018-01-02T08:22:35.135Z,68.1
2018-01-02T08:23:35.326Z,67.88
2018-01-02T08:24:34.832Z,68.1
2018-01-02T08:25:34.814Z,68.19
2018-01-02T08:26:35.056Z,68.07
2018-01-02T08:27:35.036Z,68.01
2018-01-02T08:28:35.018Z,68.26
2018-01-02T08:29:34.730Z,68.44
2018-01-02T08:30:34.979Z,68.35
2018-01-02T08:31:35.009Z,68.19
2018-01-02T08:32:34.669Z,68.07
2018-01-02T08:33:34.918Z,67.97
2018-01-02T08:34:34.638Z,68.01
2018-01-02T08:35:34.879Z,68.16
2018-01-02T08:36:34.854Z,67.91
2018-01-02T08:37:34.838Z,68.35
2018-01-02T08:38:34.552Z,68.07
2018-01-02T08:39:34.530Z,67.91
2018-01-02T08:40:34.778Z,68.86
2018-01-02T08:41:34.491Z,68.77
2018-01-02T08:42:34.737Z,68.96
2018-01-02T08:43:34.760Z,68.58
2018-01-02T08:44:34.431Z,69.15
2018-01-02T08:45:34.410Z,68.48
2018-01-02T08:46:34.656Z,69.24
2018-01-02T08:47:34.374Z,69.24
2018-01-02T08:48:34.352Z,69.43
2018-01-02T08:49:34.327Z,69.34
2018-01-02T08:50:34.574Z,69.53
2018-01-02T08:51:34.552Z,69.62
2018-01-02T08:52:34.534Z,70.29
2018-01-02T08:53:34.510Z,70.38
2018-01-02T08:54:34.231Z,70.38
2018-01-02T08:55:34.475Z,70.57
2018-01-02T08:56:34.188Z,70.67
2018-01-02T08:57:34.170Z,70.1
2018-01-02T08:58:34.151Z,70.57
2018-01-02T08:59:34.393Z,70.1
2018-01-02T09:00:34.108Z,70.29
2018-01-02T09:01:34.364Z,69.62
2018-01-02T09:02:34.340Z,69.34
2018-01-02T09:03:34.051Z,69.34
2018-01-02T09:04:34.032Z,69.43
2018-01-02T09:05:34.012Z,69.81
2018-01-02T09:06:34.312Z,69.05
2018-01-02T09:07:33.968Z,69.71
2018-01-02T09:08:34.210Z,69.05
2018-01-02T09:09:34.193Z,69.34
2018-01-02T09:10:33.907Z,69.15
2018-01-02T09:11:33.893Z,69.34
2018-01-02T09:12:34.133Z,69.15
2018-01-02T09:13:34.111Z,70
2018-01-02T09:14:33.827Z,69.43
2018-01-02T09:15:34.072Z,69.43
2018-01-02T09:16:34.052Z,69.62
2018-01-02T09:17:34.032Z,69.43
2018-01-02T09:18:34.013Z,69.24
2018-01-02T09:19:33.729Z,68.86
2018-01-02T09:20:33.973Z,69.15
2018-01-02T09:21:33.691Z,68.67
2018-01-02T09:22:33.669Z,69.62
2018-01-02T09:23:33.916Z,69.34
2018-01-02T09:24:33.626Z,69.81
2018-01-02T09:25:33.873Z,69.62
2018-01-02T09:26:33.588Z,69.71
2018-01-02T09:27:33.572Z,69.91
2018-01-02T09:28:33.810Z,70
2018-01-02T09:29:33.530Z,70
2018-01-02T09:30:33.516Z,70.29
2018-01-02T09:31:33.762Z,70.1
2018-01-02T09:32:33.469Z,70.38
2018-01-02T09:33:33.712Z,70.76
2018-01-02T09:34:33.696Z,70.95
2018-01-02T09:35:33.676Z,70.86
2018-01-02T09:36:33.655Z,71.14
2018-01-02T09:37:33.374Z,71.81
2018-01-02T09:38:33.613Z,71.81
2018-01-02T09:39:33.598Z,71.23
2018-01-02T09:40:33.577Z,71.04
2018-01-02T09:41:33.294Z,71.71
2018-01-02T09:42:33.537Z,72.19
2018-01-02T09:43:33.518Z,73.04
2018-01-02T09:44:33.501Z,74.27
2018-01-02T09:45:33.227Z,73.9
2018-01-02T09:46:33.467Z,75.13
2018-01-02T09:47:33.442Z,75.7
2018-01-02T09:48:33.419Z,75.42
2018-01-02T09:49:33.138Z,75.04
2018-01-02T09:50:33.116Z,75.42
2018-01-02T09:51:33.095Z,76.46
2018-01-02T09:52:33.342Z,76.46
2018-01-02T09:53:33.320Z,77.89
2018-01-02T09:54:33.041Z,77.22
2018-01-02T09:55:33.281Z,77.79
2018-01-02T09:56:32.999Z,79.6
2018-01-02T09:57:32.979Z,78.55
2018-01-02T09:58:32.958Z,78.5
2018-01-02T09:59:33.213Z,80.45
2018-01-02T10:00:32.927Z,81.78
2018-01-02T10:01:32.903Z,81.35
2018-01-02T10:02:33.146Z,82.58
2018-01-02T10:03:32.862Z,82.01
2018-01-02T10:04:32.847Z,82.01
2018-01-02T10:05:32.829Z,82.73
2018-01-02T10:06:33.073Z,83.3
2018-01-02T10:07:32.789Z,82.82
2018-01-02T10:08:32.769Z,82.92
2018-01-02T10:09:33.016Z,82.64
2018-01-02T10:10:32.996Z,81.78
2018-01-02T10:11:32.974Z,83.11
2018-01-02T10:12:32.692Z,81.21
2018-01-02T10:13:32.669Z,81.87
2018-01-02T10:14:32.653Z,82.45
2018-01-02T10:15:32.898Z,81.78
2018-01-02T10:16:32.880Z,82.35
2018-01-02T10:17:32.593Z,80.93
2018-01-02T10:18:32.840Z,82.45
2018-01-02T10:19:32.557Z,83.59
2018-01-02T10:20:32.542Z,83.3
2018-01-02T10:21:32.520Z,83.39
2018-01-02T10:22:32.760Z,82.16
2018-01-02T10:23:32.683Z,82.07
2018-01-02T10:24:32.462Z,83.11
2018-01-02T10:25:32.704Z,83.11
2018-01-02T10:26:32.688Z,82.92
2018-01-02T10:27:32.666Z,82.64
2018-01-02T10:28:32.380Z,83.49
2018-01-02T10:29:32.362Z,84.06
2018-01-02T10:30:32.349Z,84.44
2018-01-02T10:31:32.587Z,87.01
2018-01-02T10:32:32.568Z,86.63
2018-01-02T10:33:32.549Z,86.15
2018-01-02T10:34:32.531Z,87.95
2018-01-02T10:35:32.520Z,90.42
2018-01-02T10:36:32.233Z,91.99
2018-01-02T10:37:32.260Z,92.66
2018-01-02T10:38:32.461Z,93.13
2018-01-02T10:39:32.442Z,92.37
2018-01-02T10:40:32.156Z,92.56
2018-01-02T10:41:32.394Z,92.75
2018-01-02T10:42:32.378Z,93.41
2018-01-02T10:43:32.092Z,93.89
2018-01-02T10:44:32.080Z,91.89
2018-01-02T10:45:32.056Z,91.04
2018-01-02T10:46:32.300Z,92.94
2018-01-02T10:47:32.014Z,92.04
2018-01-02T10:48:31.996Z,92.51
2018-01-02T10:49:31.982Z,94.23
2018-01-02T10:50:32.225Z,96.12
2018-01-02T10:51:31.940Z,97.92
2018-01-02T10:52:31.923Z,96.22
2018-01-02T10:53:31.901Z,95.08
2018-01-02T10:54:31.886Z,96.31
2018-01-02T10:55:32.193Z,97.07
2018-01-02T10:56:32.105Z,96.03
2018-01-02T10:57:31.823Z,96.31
2018-01-02T10:58:31.806Z,95.94
2018-01-02T10:59:32.050Z,97.64
2018-01-02T11:00:32.033Z,96.31
2018-01-02T11:01:31.745Z,95.65
2018-01-02T11:02:31.723Z,96.88
2018-01-02T11:03:31.706Z,96.6
2018-01-02T11:04:31.948Z,97.92
2018-01-02T11:05:31.933Z,96.6
2018-01-02T11:06:31.650Z,95.08
2018-01-02T11:07:31.901Z,94.32
2018-01-02T11:08:31.877Z,92.61
2018-01-02T11:09:31.858Z,94.89
2018-01-02T11:10:31.571Z,95.03
2018-01-02T11:11:31.814Z,94.98
2018-01-02T11:12:31.532Z,95.51
2018-01-02T11:13:31.523Z,96.65
2018-01-02T11:14:31.763Z,97.12
2018-01-02T11:15:31.741Z,96.93
2018-01-02T11:16:31.453Z,96.74
2018-01-02T11:17:31.701Z,97.78
2018-01-02T11:18:31.682Z,98.55
2018-01-02T11:19:31.396Z,98.55
2018-01-02T11:20:31.378Z,99.99
2018-01-02T11:21:31.628Z,99.97
2018-01-02T11:22:31.342Z,98.45
2018-01-02T11:23:31.322Z,99.99
2018-01-02T11:24:31.306Z,99.99
2018-01-02T11:25:31.549Z,99.4
2018-01-02T11:26:31.527Z,99.21
2018-01-02T11:27:31.247Z,98.64
2018-01-02T11:28:31.277Z,99.99
2018-01-02T11:29:31.475Z,99.78
2018-01-02T11:30:31.187Z,99.99
2018-01-02T11:31:31.172Z,99.99
2018-01-02T11:32:31.434Z,99.99
2018-01-02T11:33:31.178Z,99.99
2018-01-02T11:34:31.114Z,99.99
2018-01-02T11:35:31.095Z,99.88
2018-01-02T11:36:31.078Z,99.99
2018-01-02T11:37:31.060Z,99.99
2018-01-02T11:38:31.041Z,99.21
2018-01-02T11:39:31.293Z,99.99
2018-01-02T11:40:31.266Z,99.99
2018-01-02T11:41:30.986Z,99.99
2018-01-02T11:42:31.227Z,99.99
2018-01-02T11:43:30.955Z,99.99
2018-01-02T11:44:31.199Z,99.99
2018-01-02T11:45:31.178Z,98.93
2018-01-02T11:46:30.892Z,98.93
2018-01-02T11:47:30.875Z,99.88
2018-01-02T11:48:30.900Z,99.99
2018-01-02T11:49:31.103Z,99.99
2018-01-02T11:50:31.079Z,99.99
2018-01-02T11:51:31.063Z,99.99
2018-01-02T11:52:30.780Z,99.99
2018-01-02T11:53:30.759Z,99.99
2018-01-02T11:54:31.003Z,99.99
2018-01-02T11:55:31.022Z,99.99
2018-01-02T11:56:30.705Z,99.99
2018-01-02T11:57:30.946Z,99.99
2018-01-02T11:58:30.933Z,99.99
2018-01-02T11:59:30.654Z,99.99
2018-01-02T12:00:30.633Z,99.99
2018-01-02T12:01:30.871Z,99.99
2018-01-02T12:02:30.593Z,99.99
2018-01-02T12:03:30.889Z,99.99
2018-01-02T12:04:30.814Z,99.99
2018-01-02T12:05:30.796Z,99.99
2018-01-02T12:06:30.512Z,99.99
2018-01-02T12:07:30.763Z,99.99
2018-01-02T12:08:30.739Z,99.99
2018-01-02T12:09:30.724Z,99.99
2018-01-02T12:10:30.754Z,99.99
2018-01-02T12:11:30.685Z,99.99
2018-01-02T12:12:30.668Z,99.99
2018-01-02T12:13:30.651Z,99.99
2018-01-02T12:14:30.365Z,99.99
2018-01-02T12:15:30.613Z,99.99
2018-01-02T12:16:30.325Z,99.99
2018-01-02T12:17:30.304Z,99.99
2018-01-02T12:18:30.286Z,99.99
2018-01-02T12:19:30.266Z,99.99
2018-01-02T12:20:30.255Z,99.99
2018-01-02T12:21:30.531Z,99.99
2018-01-02T12:22:30.484Z,99.99
2018-01-02T12:23:30.668Z,99.99
2018-01-02T12:24:30.437Z,99.99
2018-01-02T12:25:30.423Z,99.99
2018-01-02T12:26:30.401Z,99.99
2018-01-02T12:27:30.379Z,99.99
2018-01-02T12:28:30.360Z,99.99
2018-01-02T12:29:30.345Z,99.99
2018-01-02T12:30:30.330Z,99.99
2018-01-02T12:31:30.045Z,99.99
2018-01-02T12:32:30.295Z,99.99
2018-01-02T12:33:30.271Z,99.99
2018-01-02T12:34:30.356Z,99.99
2018-01-02T12:35:29.967Z,99.99
2018-01-02T12:36:30.215Z,99.99
2018-01-02T12:37:30.195Z,99.99
2018-01-02T12:38:30.173Z,99.99
2018-01-02T12:39:29.890Z,99.99
2018-01-02T12:40:30.139Z,99.99
2018-01-02T12:41:30.115Z,99.99
2018-01-02T12:42:30.099Z,99.99
2018-01-02T12:43:30.075Z,99.99
2018-01-02T12:44:29.795Z,99.99
2018-01-02T12:45:30.047Z,99.99
2018-01-02T12:46:30.019Z,99.99
2018-01-02T12:47:29.737Z,99.99
2018-01-02T12:48:29.727Z,99.99
2018-01-02T12:49:29.713Z,99.99
2018-01-02T12:50:29.678Z,99.99
2018-01-02T12:51:29.924Z,99.99
2018-01-02T12:52:29.908Z,99.99
2018-01-02T12:53:29.626Z,99.99
2018-01-02T12:54:29.871Z,99.99